Time;durP1;ratioP1;P1;durP2;ratioP2;P2;SDS_P1;SDS_P2;PMS_P1;PMS_P2;Temp;Humidity;BMP_temperature;BMP_pressure;BME280_temperature;BME280_humidity;BME280_pressure;Samples;Min_cycle;Max_cycle;Signal;HPM_P1;HPM_P2
2023/09/29 00:00:18;;;;;;;11.57;4.47;;;19.10;99.60;;;;;;6049794;23;20093;-69
2023/09/29 00:02:45;;;;;;;15.15;4.80;;;18.70;99.90;;;;;;6096674;23;20073;-70
2023/09/29 00:05:11;;;;;;;11.32;4.28;;;18.10;99.90;;;;;;6122538;23;20018;-69
2023/09/29 00:07:37;;;;;;;12.38;4.50;;;18.60;99.90;;;;;;6096312;23;20068;-70
2023/09/29 00:10:11;;;;;;;13.55;4.93;;;18.80;99.90;;;;;;6122575;23;20485;-69
2023/09/29 00:12:37;;;;;;;16.40;5.32;;;18.60;99.90;;;;;;6073204;23;20014;-70
2023/09/29 00:15:04;;;;;;;13.38;4.85;;;19.10;99.90;;;;;;6097280;23;20009;-69
2023/09/29 00:17:31;;;;;;;11.40;4.80;;;18.70;99.90;;;;;;6073964;23;20045;-69
2023/09/29 00:19:57;;;;;;;12.73;4.32;;;18.30;99.90;;;;;;6072971;23;20045;-69
2023/09/29 00:22:23;;;;;;;11.55;4.35;;;18.10;99.90;;;;;;6097077;23;20024;-69
2023/09/29 00:24:48;;;;;;;16.67;4.95;;;18.80;99.90;;;;;;6122105;23;20041;-69
2023/09/29 00:27:14;;;;;;;13.60;4.65;;;18.70;99.90;;;;;;6122255;23;20407;-69
2023/09/29 00:29:40;;;;;;;12.57;5.13;;;18.80;99.90;;;;;;6096525;23;20063;-69
2023/09/29 00:32:05;;;;;;;13.00;4.60;;;19.30;99.90;;;;;;6110607;23;20024;-69
2023/09/29 00:34:31;;;;;;;11.07;4.10;;;18.80;99.90;;;;;;6121501;23;20010;-69
2023/09/29 00:36:57;;;;;;;11.90;4.50;;;18.70;99.90;;;;;;6120813;23;20030;-69
2023/09/29 00:39:23;;;;;;;11.25;4.95;;;19.00;99.90;;;;;;6122130;23;20064;-69
2023/09/29 00:41:49;;;;;;;12.20;4.20;;;19.10;99.90;;;;;;6122030;23;20447;-69
2023/09/29 00:44:15;;;;;;;12.75;4.43;;;18.90;99.90;;;;;;6096414;23;20490;-69
2023/09/29 00:46:42;;;;;;;15.65;4.63;;;18.80;99.90;;;;;;6120398;23;20014;-70
2023/09/29 00:49:08;;;;;;;15.60;4.85;;;18.60;99.90;;;;;;6119692;23;20013;-69
2023/09/29 00:51:35;;;;;;;10.68;4.38;;;19.30;99.90;;;;;;6122648;23;20093;-69
2023/09/29 00:54:08;;;;;;;11.25;4.53;;;18.90;99.90;;;;;;6123265;23;20014;-69
2023/09/29 00:56:35;;;;;;;12.88;4.25;;;18.60;99.90;;;;;;6121419;23;20463;-69
2023/09/29 00:59:05;;;;;;;15.77;5.20;;;18.90;99.90;;;;;;6120351;23;20018;-69
2023/09/29 01:01:31;;;;;;;19.00;4.93;;;18.90;99.90;;;;;;6121054;23;20010;-69
2023/09/29 01:03:59;;;;;;;11.35;4.18;;;18.90;99.90;;;;;;6120732;23;20045;-69
2023/09/29 01:06:25;;;;;;;12.50;4.72;;;18.90;99.90;;;;;;6120651;23;20447;-69
2023/09/29 01:08:52;;;;;;;10.30;4.43;;;18.80;99.90;;;;;;6120098;23;20014;-69
2023/09/29 01:11:18;;;;;;;11.13;4.60;;;18.00;99.90;;;;;;6121495;23;20080;-69
2023/09/29 01:13:44;;;;;;;14.25;4.53;;;18.70;99.90;;;;;;6121012;23;20399;-69
2023/09/29 01:16:09;;;;;;;13.73;4.68;;;18.70;99.90;;;;;;6121156;23;20021;-69
2023/09/29 01:18:36;;;;;;;16.55;5.20;;;18.80;99.90;;;;;;6120350;23;20010;-69
2023/09/29 01:21:06;;;;;;;13.48;4.22;;;19.10;99.90;;;;;;6120898;23;20056;-69
2023/09/29 01:23:33;;;;;;;11.13;4.50;;;19.00;99.90;;;;;;6122949;23;20574;-70
2023/09/29 01:25:59;;;;;;;15.95;4.38;;;18.60;99.90;;;;;;6122150;23;20348;-69
2023/09/29 01:28:25;;;;;;;11.05;3.88;;;18.80;99.90;;;;;;6120303;23;20022;-69
2023/09/29 01:30:53;;;;;;;13.57;4.78;;;18.80;99.90;;;;;;6120275;23;20028;-67
2023/09/29 01:33:22;;;;;;;10.77;4.07;;;18.60;99.90;;;;;;6122467;23;20014;-68
2023/09/29 01:35:48;;;;;;;13.23;4.82;;;18.50;99.90;;;;;;6122349;23;20014;-68
2023/09/29 01:38:15;;;;;;;12.77;4.22;;;18.40;99.90;;;;;;6095690;23;20025;-69
2023/09/29 01:40:41;;;;;;;11.18;3.83;;;18.50;99.90;;;;;;6096049;23;20010;-70
2023/09/29 01:43:06;;;;;;;11.43;3.97;;;19.00;99.90;;;;;;6097043;23;20010;-68
2023/09/29 01:45:32;;;;;;;10.75;4.00;;;18.40;99.90;;;;;;6096691;23;20029;-68
2023/09/29 01:48:00;;;;;;;13.43;5.10;;;18.70;99.90;;;;;;6095602;23;20014;-68
2023/09/29 01:50:26;;;;;;;14.40;5.05;;;18.80;99.90;;;;;;6094828;23;20014;-69
2023/09/29 01:52:52;;;;;;;9.73;3.70;;;18.80;99.90;;;;;;6122048;23;20089;-68
2023/09/29 01:55:25;;;;;;;12.98;4.72;;;18.70;99.90;;;;;;6121543;23;20021;-69
2023/09/29 01:57:56;;;;;;;12.00;4.03;;;18.70;99.90;;;;;;6094695;23;20014;-69
2023/09/29 02:00:25;;;;;;;10.20;4.30;;;18.90;99.00;;;;;;6094816;23;20060;-68
2023/09/29 02:02:52;;;;;;;11.93;3.92;;;18.60;99.90;;;;;;6121365;23;20321;-69
2023/09/29 02:05:18;;;;;;;10.45;4.05;;;18.40;99.90;;;;;;6092731;23;20010;-69
2023/09/29 02:07:45;;;;;;;13.30;4.25;;;18.60;99.90;;;;;;6092442;23;20093;-68
2023/09/29 02:10:11;;;;;;;10.32;3.80;;;18.90;99.90;;;;;;6095936;23;20332;-68
2023/09/29 02:12:58;;;;;;;9.95;3.70;;;18.40;99.90;;;;;;6096752;23;20020;-68
2023/09/29 02:15:25;;;;;;;10.98;4.05;;;17.80;99.90;;;;;;6122420;23;20384;-68
2023/09/29 02:17:51;;;;;;;11.70;4.75;;;19.00;99.90;;;;;;6121674;23;20356;-68
2023/09/29 02:20:28;;;;;;;11.10;3.58;;;18.40;99.90;;;;;;6095594;23;20337;-68
2023/09/29 02:22:55;;;;;;;11.88;3.72;;;18.40;99.90;;;;;;6096187;23;20014;-68
2023/09/29 02:25:25;;;;;;;11.55;3.92;;;19.40;99.90;;;;;;6096299;23;20298;-69
2023/09/29 02:27:56;;;;;;;11.82;4.07;;;18.80;99.90;;;;;;6095485;23;20077;-68
2023/09/29 02:30:24;;;;;;;13.85;4.72;;;18.60;99.90;;;;;;6096191;23;20010;-68
2023/09/29 02:32:52;;;;;;;12.38;4.15;;;18.70;99.90;;;;;;6122551;23;20010;-69
2023/09/29 02:35:17;;;;;;;14.23;4.15;;;18.70;99.90;;;;;;6124330;23;20014;-69
2023/09/29 02:37:44;;;;;;;12.32;4.35;;;18.80;99.90;;;;;;6049125;23;20242;-69
2023/09/29 02:40:14;;;;;;;11.60;3.90;;;18.70;99.90;;;;;;6074042;23;20460;-69
2023/09/29 02:42:42;;;;;;;14.15;4.38;;;18.60;99.90;;;;;;6123402;23;20037;-69
2023/09/29 02:45:10;;;;;;;14.02;4.22;;;18.80;99.90;;;;;;6097913;23;20578;-69
2023/09/29 02:47:39;;;;;;;11.57;3.92;;;19.20;99.90;;;;;;6121214;23;20034;-69
2023/09/29 02:50:10;;;;;;;8.75;3.63;;;18.80;99.90;;;;;;6096297;23;20456;-69
2023/09/29 02:52:38;;;;;;;8.77;3.63;;;17.30;99.90;;;;;;6097213;23;20014;-69
2023/09/29 02:55:05;;;;;;;13.65;4.28;;;19.20;99.90;;;;;;6123595;23;20360;-69
2023/09/29 02:57:30;;;;;;;12.88;4.32;;;18.70;99.90;;;;;;6097848;23;20010;-69
2023/09/29 02:59:57;;;;;;;10.13;3.97;;;18.70;99.90;;;;;;6123775;23;20006;-69
2023/09/29 03:02:23;;;;;;;9.77;3.50;;;18.70;99.90;;;;;;6074291;23;20388;-69
2023/09/29 03:04:50;;;;;;;12.02;3.65;;;19.00;99.90;;;;;;6124158;23;20029;-69
2023/09/29 03:07:16;;;;;;;9.00;3.60;;;19.10;99.90;;;;;;6097718;23;20009;-69
2023/09/29 03:09:43;;;;;;;13.48;4.65;;;19.00;99.90;;;;;;6096361;23;20026;-69
2023/09/29 03:12:08;;;;;;;9.60;3.20;;;18.80;99.90;;;;;;6097586;23;20069;-69
2023/09/29 03:14:34;;;;;;;13.23;4.30;;;18.70;99.90;;;;;;6123994;23;20018;-70
2023/09/29 03:17:00;;;;;;;12.30;3.85;;;18.90;99.90;;;;;;6096937;23;20093;-69
2023/09/29 03:19:27;;;;;;;10.43;3.28;;;18.80;99.90;;;;;;6123513;23;20164;-70
2023/09/29 03:21:53;;;;;;;10.93;3.42;;;19.00;99.90;;;;;;6123590;23;20010;-70
2023/09/29 03:24:18;;;;;;;10.77;3.55;;;19.10;99.90;;;;;;6123840;23;20470;-68
2023/09/29 03:26:45;;;;;;;12.30;3.85;;;18.90;99.90;;;;;;6124337;23;20016;-69
2023/09/29 03:29:11;;;;;;;10.02;3.10;;;19.00;99.90;;;;;;6096029;23;20092;-68
2023/09/29 03:31:36;;;;;;;10.18;3.40;;;18.80;99.90;;;;;;6123621;23;20013;-68
2023/09/29 03:34:02;;;;;;;8.85;3.33;;;18.20;99.90;;;;;;6096693;23;20025;-68
2023/09/29 03:36:30;;;;;;;13.85;4.28;;;18.80;99.90;;;;;;6097120;23;20084;-68
2023/09/29 03:38:56;;;;;;;11.02;3.38;;;19.30;99.90;;;;;;6096763;23;20056;-68
2023/09/29 03:41:23;;;;;;;12.57;3.55;;;19.20;99.90;;;;;;6097156;23;20449;-68
2023/09/29 03:43:50;;;;;;;10.05;3.05;;;19.00;99.90;;;;;;6096355;23;20021;-68
2023/09/29 03:46:20;;;;;;;10.10;3.33;;;19.00;99.90;;;;;;6122893;23;20021;-69
2023/09/29 03:48:47;;;;;;;13.25;3.78;;;18.30;99.90;;;;;;6097425;23;20018;-68
2023/09/29 03:51:25;;;;;;;10.10;3.38;;;18.90;99.90;;;;;;6096895;23;20025;-69
2023/09/29 03:53:52;;;;;;;12.10;3.47;;;19.40;99.90;;;;;;6073449;23;20286;-68
2023/09/29 03:56:22;;;;;;;8.35;3.00;;;18.90;99.90;;;;;;6096745;23;20017;-69
2023/09/29 03:58:53;;;;;;;9.10;3.45;;;19.00;99.90;;;;;;6096583;23;20010;-69
2023/09/29 04:01:19;;;;;;;9.10;3.55;;;18.50;99.90;;;;;;6096794;23;20021;-68
2023/09/29 04:03:45;;;;;;;10.23;3.33;;;19.00;99.90;;;;;;6092837;23;20013;-68
2023/09/29 04:06:11;;;;;;;14.73;4.63;;;19.00;99.90;;;;;;6123060;23;20014;-69
2023/09/29 04:08:37;;;;;;;13.15;3.20;;;19.10;99.90;;;;;;6122703;23;20072;-68
2023/09/29 04:11:03;;;;;;;12.05;3.90;;;18.90;99.90;;;;;;6097169;23;20018;-69
2023/09/29 04:13:29;;;;;;;8.07;3.00;;;18.80;99.90;;;;;;6096431;23;20016;-69
2023/09/29 04:15:55;;;;;;;10.35;3.35;;;18.70;99.90;;;;;;6097503;23;20451;-69
2023/09/29 04:18:20;;;;;;;10.68;3.17;;;18.90;99.90;;;;;;6121759;23;20014;-68
2023/09/29 04:20:46;;;;;;;13.23;3.92;;;18.50;99.90;;;;;;6122240;23;20040;-69
2023/09/29 04:23:12;;;;;;;10.82;3.35;;;18.90;99.90;;;;;;6096439;23;20014;-69
2023/09/29 04:25:37;;;;;;;10.65;3.97;;;19.10;99.90;;;;;;6122307;23;20014;-68
2023/09/29 04:28:04;;;;;;;9.68;3.10;;;19.00;99.90;;;;;;6121367;23;20052;-68
2023/09/29 04:30:30;;;;;;;14.73;3.45;;;18.80;99.90;;;;;;6122141;23;20025;-69
2023/09/29 04:32:55;;;;;;;11.82;3.90;;;19.20;99.90;;;;;;6096505;23;20069;-69
2023/09/29 04:35:21;;;;;;;9.43;3.40;;;19.00;99.90;;;;;;6094479;23;20014;-69
2023/09/29 04:37:49;;;;;;;10.75;3.65;;;19.00;99.90;;;;;;6094824;23;20609;-69
2023/09/29 04:40:15;;;;;;;14.93;4.45;;;19.00;99.90;;;;;;6120389;23;20333;-68
2023/09/29 04:42:40;;;;;;;18.77;5.57;;;19.20;99.90;;;;;;6122958;23;20025;-69
2023/09/29 04:45:07;;;;;;;19.15;5.57;;;18.90;99.90;;;;;;6096211;23;20025;-69
2023/09/29 04:47:33;;;;;;;18.58;6.40;;;19.10;99.90;;;;;;6120655;23;20017;-69
2023/09/29 04:49:59;;;;;;;23.38;6.28;;;18.90;99.90;;;;;;6120494;23;20010;-69
2023/09/29 04:52:27;;;;;;;19.02;6.47;;;19.20;99.90;;;;;;6122042;23;20014;-70
2023/09/29 04:54:53;;;;;;;14.45;5.32;;;19.00;99.90;;;;;;6118841;23;20018;-69
2023/09/29 04:57:19;;;;;;;17.95;5.30;;;18.90;99.90;;;;;;6119016;23;20033;-69
2023/09/29 04:59:45;;;;;;;13.15;4.10;;;19.10;99.90;;;;;;6118673;23;20017;-69
2023/09/29 05:02:11;;;;;;;16.40;5.30;;;19.30;99.90;;;;;;6120210;23;20362;-69
2023/09/29 05:04:37;;;;;;;14.70;5.35;;;18.70;99.90;;;;;;6120773;23;20024;-69
2023/09/29 05:07:02;;;;;;;14.18;5.10;;;19.00;99.90;;;;;;6085740;23;20018;-69
2023/09/29 05:09:28;;;;;;;12.35;4.82;;;19.10;99.90;;;;;;6119921;23;20320;-69
2023/09/29 05:11:54;;;;;;;12.52;5.03;;;19.20;99.90;;;;;;6120683;23;20080;-70
2023/09/29 05:14:19;;;;;;;12.10;3.97;;;19.20;99.90;;;;;;6122731;23;20065;-69
2023/09/29 05:16:45;;;;;;;13.35;4.45;;;19.30;99.90;;;;;;6121734;23;20018;-69
2023/09/29 05:19:11;;;;;;;13.60;4.70;;;19.00;99.90;;;;;;6119858;23;20065;-69
2023/09/29 05:21:36;;;;;;;14.13;4.82;;;19.00;99.90;;;;;;6120782;23;20095;-68
2023/09/29 05:24:03;;;;;;;11.98;4.18;;;18.80;99.90;;;;;;6096259;23;20021;-68
2023/09/29 05:26:28;;;;;;;16.17;4.43;;;19.20;99.90;;;;;;6120018;23;20077;-68
2023/09/29 05:28:55;;;;;;;14.68;4.63;;;19.00;99.90;;;;;;6119174;23;20018;-68
2023/09/29 05:31:21;;;;;;;12.88;4.60;;;19.30;99.90;;;;;;6119643;23;20096;-68
2023/09/29 05:33:47;;;;;;;13.95;4.25;;;19.00;99.90;;;;;;6119475;23;20101;-68
2023/09/29 05:36:12;;;;;;;10.38;4.20;;;19.00;99.90;;;;;;6121415;23;20021;-68
2023/09/29 05:38:38;;;;;;;12.15;4.75;;;19.00;99.90;;;;;;6119982;23;20072;-69
2023/09/29 05:41:04;;;;;;;12.35;4.55;;;19.20;99.90;;;;;;6120889;23;20348;-69
2023/09/29 05:43:30;;;;;;;10.00;3.92;;;19.10;99.90;;;;;;6122433;23;20014;-68
2023/09/29 05:45:56;;;;;;;11.55;3.97;;;19.00;99.90;;;;;;6120990;23;20026;-68
2023/09/29 05:48:21;;;;;;;12.23;4.07;;;18.80;99.90;;;;;;6119305;23;20037;-68
2023/09/29 05:50:47;;;;;;;11.15;4.13;;;19.10;99.90;;;;;;6120780;23;20354;-68
2023/09/29 05:53:13;;;;;;;9.95;3.80;;;19.60;99.90;;;;;;6115599;23;20065;-68
2023/09/29 05:55:39;;;;;;;11.15;3.90;;;18.90;99.90;;;;;;6118726;23;20022;-69
2023/09/29 05:58:05;;;;;;;10.18;3.63;;;18.90;99.90;;;;;;6119675;23;20020;-68
2023/09/29 06:00:31;;;;;;;11.02;4.38;;;19.00;99.90;;;;;;6118494;23;20503;-68
2023/09/29 06:02:58;;;;;;;10.02;3.42;;;20.00;99.90;;;;;;6092201;23;20054;-68
2023/09/29 06:05:25;;;;;;;9.50;3.45;;;18.90;99.90;;;;;;6121471;23;20363;-69
2023/09/29 06:07:51;;;;;;;10.63;3.72;;;19.20;99.90;;;;;;6094567;23;20018;-69
2023/09/29 06:10:17;;;;;;;11.48;4.40;;;18.80;99.90;;;;;;6122408;23;20017;-70
2023/09/29 06:12:42;;;;;;;12.35;4.32;;;18.90;99.90;;;;;;6122495;23;20534;-70
2023/09/29 06:15:09;;;;;;;11.35;4.20;;;18.90;99.90;;;;;;6122480;23;20013;-69
2023/09/29 06:17:35;;;;;;;11.23;4.03;;;19.30;99.90;;;;;;6123374;23;20010;-69
2023/09/29 06:20:01;;;;;;;7.68;3.13;;;19.20;99.90;;;;;;6123516;23;20032;-70
2023/09/29 06:22:27;;;;;;;9.80;3.72;;;19.20;99.90;;;;;;6124438;23;20010;-69
2023/09/29 06:24:52;;;;;;;10.80;3.60;;;19.00;99.90;;;;;;6121367;23;20328;-69
2023/09/29 06:27:18;;;;;;;21.77;5.63;;;19.20;99.90;;;;;;6122545;23;20022;-67
2023/09/29 06:29:48;;;;;;;20.13;5.88;;;19.00;99.90;;;;;;6120539;23;20473;-67
2023/09/29 06:32:14;;;;;;;20.08;7.28;;;19.10;99.90;;;;;;6100345;23;20018;-68
2023/09/29 06:34:40;;;;;;;25.27;8.07;;;19.30;99.90;;;;;;6123095;23;20017;-68
2023/09/29 06:37:05;;;;;;;25.90;7.85;;;18.80;99.90;;;;;;6123560;23;20014;-68
2023/09/29 06:39:31;;;;;;;24.83;7.13;;;19.00;99.90;;;;;;6119177;23;20049;-68
2023/09/29 06:41:57;;;;;;;24.77;5.88;;;19.30;99.90;;;;;;6120405;23;20037;-68
2023/09/29 06:44:23;;;;;;;32.92;7.47;;;19.00;99.90;;;;;;6094171;23;20010;-68
2023/09/29 06:46:49;;;;;;;26.10;5.57;;;19.40;99.90;;;;;;6125573;23;20096;-68
2023/09/29 06:49:14;;;;;;;23.83;6.18;;;18.90;99.90;;;;;;6123279;23;20018;-68
2023/09/29 06:51:40;;;;;;;21.38;5.95;;;18.60;99.90;;;;;;6124204;23;20014;-68
2023/09/29 06:54:06;;;;;;;27.88;7.50;;;19.00;99.90;;;;;;6097824;23;20037;-68
2023/09/29 06:56:32;;;;;;;14.88;5.47;;;18.90;99.90;;;;;;6121389;23;20352;-68
2023/09/29 06:58:57;;;;;;;22.13;6.05;;;19.00;99.90;;;;;;6123120;23;20010;-68
2023/09/29 07:01:27;;;;;;;14.25;4.55;;;19.00;99.90;;;;;;6120587;23;20014;-68
2023/09/29 07:03:53;;;;;;;19.90;5.47;;;19.60;99.90;;;;;;6121069;23;20352;-69
2023/09/29 07:06:23;;;;;;;16.85;4.95;;;19.10;99.90;;;;;;6122817;23;20013;-68
2023/09/29 07:08:49;;;;;;;13.50;4.47;;;18.90;99.90;;;;;;6123543;23;20013;-68
2023/09/29 07:11:15;;;;;;;17.92;4.70;;;19.30;99.90;;;;;;6123490;23;20010;-68
2023/09/29 07:13:40;;;;;;;12.43;3.95;;;19.00;99.90;;;;;;6122470;23;20014;-68
2023/09/29 07:16:06;;;;;;;12.27;4.45;;;19.20;99.90;;;;;;6121659;23;20018;-68
2023/09/29 07:18:32;;;;;;;17.38;4.28;;;19.00;99.90;;;;;;6120185;23;20010;-68
2023/09/29 07:20:58;;;;;;;12.00;3.92;;;19.00;99.90;;;;;;6121234;23;20021;-68
2023/09/29 07:23:23;;;;;;;10.02;3.65;;;19.30;99.90;;;;;;6121767;23;20032;-68
2023/09/29 07:25:54;;;;;;;12.30;3.50;;;19.30;99.90;;;;;;6123613;23;20014;-69
2023/09/29 07:28:23;;;;;;;11.05;3.35;;;19.00;99.90;;;;;;6119939;23;20352;-68
2023/09/29 07:30:52;;;;;;;11.77;4.13;;;19.20;99.90;;;;;;6122571;23;20025;-70
2023/09/29 07:33:17;;;;;;;9.13;3.42;;;19.80;99.90;;;;;;6096124;23;20018;-68
2023/09/29 07:35:44;;;;;;;9.60;2.88;;;19.20;99.90;;;;;;6121670;23;20017;-68
2023/09/29 07:38:10;;;;;;;11.63;3.80;;;19.80;99.90;;;;;;6096460;23;20010;-68
2023/09/29 07:40:35;;;;;;;9.95;3.67;;;18.90;99.90;;;;;;6122376;23;20025;-68
2023/09/29 07:43:02;;;;;;;10.15;3.17;;;19.20;99.90;;;;;;6121641;23;20105;-68
2023/09/29 07:45:28;;;;;;;9.98;3.42;;;19.00;99.90;;;;;;6095736;23;20456;-68
2023/09/29 07:47:54;;;;;;;10.05;3.20;;;19.00;99.90;;;;;;6095121;23;20384;-69
2023/09/29 07:50:20;;;;;;;9.63;3.20;;;19.20;99.90;;;;;;6096913;23;20045;-68
2023/09/29 07:52:45;;;;;;;10.13;3.05;;;19.30;99.90;;;;;;6097880;23;20014;-68
2023/09/29 07:55:11;;;;;;;8.68;2.90;;;19.20;99.90;;;;;;6097631;23;20010;-68
2023/09/29 07:57:38;;;;;;;9.65;2.75;;;19.10;99.90;;;;;;6096845;23;20014;-69
2023/09/29 08:00:12;;;;;;;10.38;3.13;;;20.30;99.90;;;;;;6098263;23;20018;-68
2023/09/29 08:02:39;;;;;;;9.30;2.83;;;19.30;99.90;;;;;;6097197;23;20025;-68
2023/09/29 08:05:06;;;;;;;14.93;3.53;;;19.20;99.90;;;;;;6098281;23;20037;-68
2023/09/29 08:07:31;;;;;;;13.38;4.25;;;19.00;99.90;;;;;;6123449;23;20010;-68
2023/09/29 08:09:57;;;;;;;11.35;3.50;;;19.20;99.90;;;;;;6123525;23;20519;-69
2023/09/29 08:12:22;;;;;;;11.20;3.33;;;19.40;99.90;;;;;;6097434;23;20010;-69
2023/09/29 08:14:48;;;;;;;10.77;3.60;;;19.20;99.90;;;;;;6123956;23;20060;-70
2023/09/29 08:17:14;;;;;;;8.27;2.80;;;18.80;99.90;;;;;;6123341;23;20018;-69
2023/09/29 08:19:39;;;;;;;11.98;3.30;;;19.30;99.90;;;;;;6122789;23;20328;-70
2023/09/29 08:22:05;;;;;;;10.07;3.58;;;19.30;99.90;;;;;;6096086;23;20020;-69
2023/09/29 08:24:32;;;;;;;8.25;2.83;;;19.30;99.90;;;;;;6117865;23;20012;-69
2023/09/29 08:26:58;;;;;;;7.25;2.65;;;19.10;99.90;;;;;;6122854;23;20478;-69
2023/09/29 08:29:24;;;;;;;8.70;2.70;;;19.50;99.90;;;;;;6096686;23;20100;-69
2023/09/29 08:31:49;;;;;;;9.63;3.10;;;18.90;99.90;;;;;;6107881;23;20017;-69
2023/09/29 08:34:15;;;;;;;10.88;2.75;;;19.00;99.90;;;;;;6123299;23;20419;-69
2023/09/29 08:36:41;;;;;;;6.45;2.75;;;19.30;99.90;;;;;;6121384;23;20114;-69
2023/09/29 08:39:07;;;;;;;5.80;2.53;;;18.20;99.90;;;;;;6096798;23;20436;-69
2023/09/29 08:41:35;;;;;;;7.55;2.72;;;19.00;99.90;;;;;;6122432;23;20014;-69
2023/09/29 08:44:08;;;;;;;8.48;2.70;;;19.20;99.90;;;;;;6123576;23;20010;-69
2023/09/29 08:46:36;;;;;;;6.82;2.45;;;19.00;99.90;;;;;;6123201;23;20515;-69
2023/09/29 08:49:03;;;;;;;8.55;2.60;;;19.20;99.90;;;;;;6121247;23;20017;-69
2023/09/29 08:51:36;;;;;;;6.38;2.50;;;19.40;99.90;;;;;;6121334;23;20014;-69
2023/09/29 08:54:04;;;;;;;7.63;2.60;;;19.50;99.90;;;;;;6123729;23;20013;-69
2023/09/29 08:56:30;;;;;;;6.30;2.70;;;19.20;99.90;;;;;;6123391;23;20022;-69
2023/09/29 08:58:57;;;;;;;7.97;2.80;;;19.30;99.90;;;;;;6121064;23;20033;-69
2023/09/29 09:01:23;;;;;;;8.60;3.67;;;19.40;99.90;;;;;;6123515;23;20006;-69
2023/09/29 09:03:50;;;;;;;7.72;2.85;;;19.10;99.90;;;;;;6123260;23;20053;-69
2023/09/29 09:06:22;;;;;;;7.75;3.00;;;19.20;99.90;;;;;;6122933;23;20024;-69
2023/09/29 09:08:50;;;;;;;7.60;2.85;;;19.00;99.90;;;;;;6123043;23;20380;-69
2023/09/29 09:11:15;;;;;;;10.13;2.92;;;19.10;99.90;;;;;;6120376;23;20083;-69
2023/09/29 09:13:41;;;;;;;6.18;2.55;;;19.40;99.90;;;;;;6121304;23;20018;-69
2023/09/29 09:16:07;;;;;;;6.53;2.70;;;19.50;99.90;;;;;;6121110;23;20029;-69
2023/09/29 09:18:33;;;;;;;9.20;2.85;;;19.10;99.90;;;;;;6122590;23;20010;-69
2023/09/29 09:20:58;;;;;;;7.82;2.83;;;19.00;99.90;;;;;;6097024;23;20013;-69
2023/09/29 09:23:24;;;;;;;9.05;2.88;;;19.30;99.90;;;;;;6121369;23;20014;-69
2023/09/29 09:25:49;;;;;;;9.95;3.17;;;19.30;99.90;;;;;;6121694;23;20093;-69
2023/09/29 09:28:22;;;;;;;8.13;3.33;;;19.10;99.90;;;;;;6120787;23;20018;-69
2023/09/29 09:30:58;;;;;;;6.60;3.25;;;18.90;99.90;;;;;;6122925;23;20100;-69
2023/09/29 09:33:25;;;;;;;8.88;3.38;;;19.00;99.90;;;;;;6123080;23;20329;-69
2023/09/29 09:35:51;;;;;;;7.07;3.13;;;20.00;99.90;;;;;;6122769;23;20376;-69
2023/09/29 09:38:20;;;;;;;8.05;3.17;;;19.60;99.90;;;;;;6096462;23;20010;-69
2023/09/29 09:40:49;;;;;;;12.38;3.50;;;19.10;99.90;;;;;;6122367;23;20061;-69
2023/09/29 09:43:17;;;;;;;7.75;2.97;;;19.60;99.90;;;;;;6096633;23;20061;-69
2023/09/29 09:45:44;;;;;;;8.35;3.40;;;19.60;99.90;;;;;;6122515;23;20014;-69
2023/09/29 09:48:14;;;;;;;7.95;2.88;;;19.80;1.00;;;;;;6096455;23;20018;-69
2023/09/29 09:50:43;;;;;;;7.68;3.15;;;20.70;1.00;;;;;;6097214;23;20021;-69
2023/09/29 09:53:12;;;;;;;7.70;3.13;;;19.50;1.00;;;;;;6122689;23;20033;-69
2023/09/29 09:55:44;;;;;;;9.57;3.42;;;19.40;1.00;;;;;;6123012;23;20022;-69
2023/09/29 09:58:15;;;;;;;6.43;2.67;;;19.20;1.00;;;;;;6096090;23;20072;-69
2023/09/29 10:00:50;;;;;;;10.88;3.10;;;19.50;1.00;;;;;;6122915;23;20012;-69
2023/09/29 10:03:18;;;;;;;7.68;3.03;;;19.50;1.00;;;;;;6094960;23;20499;-69
2023/09/29 10:05:52;;;;;;;9.07;3.05;;;20.10;1.00;;;;;;6089134;23;20179;-69
2023/09/29 10:08:30;;;;;;;10.05;3.40;;;19.80;1.00;;;;;;6072025;23;20013;-69
2023/09/29 10:11:09;;;;;;;8.43;2.88;;;20.10;1.00;;;;;;6122618;23;20212;-69
2023/09/29 10:13:35;;;;;;;6.93;3.15;;;19.50;1.00;;;;;;6096707;23;20071;-69
2023/09/29 10:16:05;;;;;;;6.57;2.88;;;20.20;1.00;;;;;;6096858;23;20587;-69
2023/09/29 10:18:33;;;;;;;10.10;3.15;;;19.40;1.00;;;;;;6122571;23;20012;-69
2023/09/29 10:21:06;;;;;;;7.93;3.30;;;19.50;1.00;;;;;;6097012;23;20014;-69
2023/09/29 10:23:48;;;;;;;7.18;2.90;;;19.60;1.00;;;;;;6072847;23;20080;-69
2023/09/29 10:26:17;;;;;;;10.02;3.00;;;19.30;1.00;;;;;;6123148;23;20014;-69
2023/09/29 10:28:46;;;;;;;8.50;3.30;;;19.50;1.00;;;;;;6095862;23;20020;-69
2023/09/29 10:31:17;;;;;;;7.43;3.40;;;19.40;1.00;;;;;;6099659;23;20010;-69
2023/09/29 10:33:57;;;;;;;8.40;3.35;;;19.50;1.00;;;;;;6120979;23;20013;-69
2023/09/29 10:36:28;;;;;;;8.73;3.05;;;20.30;1.00;;;;;;6063641;23;20096;-69
2023/09/29 10:38:57;;;;;;;6.82;2.83;;;20.30;1.00;;;;;;6115947;23;20018;-69
2023/09/29 10:41:23;;;;;;;7.78;2.90;;;19.80;1.00;;;;;;6122890;23;20048;-69
2023/09/29 10:43:50;;;;;;;6.65;2.80;;;20.30;1.00;;;;;;6122945;23;20011;-69
2023/09/29 10:46:22;;;;;;;7.78;2.90;;;19.70;1.00;;;;;;6096918;23;20029;-69
2023/09/29 10:48:52;;;;;;;9.30;3.47;;;19.40;1.00;;;;;;6120314;23;20475;-69
2023/09/29 10:51:25;;;;;;;7.75;3.85;;;19.70;1.00;;;;;;6121408;23;20017;-69
2023/09/29 10:53:51;;;;;;;9.10;3.25;;;20.30;1.00;;;;;;6122313;23;20014;-69
2023/09/29 10:56:22;;;;;;;7.55;2.97;;;19.40;4.60;;;;;;6124396;23;20013;-69
2023/09/29 10:58:52;;;;;;;9.45;3.83;;;19.80;13.00;;;;;;6124295;23;20013;-69
2023/09/29 11:01:32;;;;;;;8.15;3.47;;;19.50;20.20;;;;;;6098318;23;20507;-69
2023/09/29 11:03:59;;;;;;;11.38;3.60;;;19.60;23.90;;;;;;6099149;23;20014;-69
2023/09/29 11:06:25;;;;;;;6.72;2.42;;;20.10;38.70;;;;;;6098262;23;20457;-69
2023/09/29 11:08:53;;;;;;;7.32;2.03;;;19.40;63.60;;;;;;6124229;23;20014;-69
2023/09/29 11:11:19;;;;;;;5.50;1.80;;;19.50;93.20;;;;;;6122636;23;20067;-69
2023/09/29 11:13:53;;;;;;;6.00;1.90;;;20.10;99.90;;;;;;6122624;23;20400;-69
2023/09/29 11:16:19;;;;;;;5.97;1.70;;;20.00;99.90;;;;;;6124411;23;20014;-69
2023/09/29 11:18:45;;;;;;;7.70;1.85;;;20.40;99.90;;;;;;6123802;23;20060;-69
2023/09/29 11:21:12;;;;;;;6.38;1.70;;;20.30;99.90;;;;;;6122771;23;20441;-69
2023/09/29 11:23:45;;;;;;;5.07;1.70;;;19.50;99.90;;;;;;6122662;23;20017;-69
2023/09/29 11:26:12;;;;;;;6.53;1.60;;;19.50;99.90;;;;;;6124009;23;20014;-70
2023/09/29 11:28:47;;;;;;;6.45;1.90;;;19.50;99.90;;;;;;6122349;23;20242;-70
2023/09/29 11:31:15;;;;;;;5.75;1.60;;;19.50;99.90;;;;;;6124019;23;20021;-69
2023/09/29 11:33:41;;;;;;;5.72;2.30;;;19.90;99.90;;;;;;6123882;23;20463;-70
2023/09/29 11:36:18;;;;;;;4.80;1.70;;;19.30;99.90;;;;;;6098061;23;20010;-70
2023/09/29 11:38:44;;;;;;;5.60;1.70;;;19.50;99.90;;;;;;6123368;23;20021;-69
2023/09/29 11:41:15;;;;;;;5.95;1.90;;;20.00;99.90;;;;;;6097813;23;20014;-69
2023/09/29 11:43:42;;;;;;;5.40;1.55;;;19.70;99.90;;;;;;6097619;23;20014;-69
2023/09/29 11:46:08;;;;;;;6.72;1.75;;;19.60;99.90;;;;;;6097925;23;20014;-69
2023/09/29 11:48:35;;;;;;;7.05;2.05;;;19.60;99.90;;;;;;6123802;23;20041;-69
2023/09/29 11:51:01;;;;;;;6.13;1.90;;;19.50;99.90;;;;;;6097603;23;20017;-70
2023/09/29 11:53:27;;;;;;;5.43;1.63;;;20.30;99.90;;;;;;6123572;23;20014;-70
2023/09/29 11:55:54;;;;;;;4.57;1.65;;;19.10;99.90;;;;;;6123574;23;20041;-70
2023/09/29 11:58:20;;;;;;;6.00;1.85;;;19.50;99.90;;;;;;6073218;23;20565;-70
2023/09/29 12:00:47;;;;;;;6.53;1.67;;;19.40;99.90;;;;;;6097357;23;20010;-70
2023/09/29 12:03:13;;;;;;;5.78;1.70;;;19.80;99.90;;;;;;6123905;23;20021;-70
2023/09/29 12:05:41;;;;;;;4.35;1.58;;;19.30;99.90;;;;;;6097646;23;20010;-71
2023/09/29 12:08:07;;;;;;;4.82;1.30;;;19.30;99.90;;;;;;6096459;23;20021;-70
2023/09/29 12:10:32;;;;;;;4.30;1.30;;;19.10;99.90;;;;;;6097605;23;20006;-70
2023/09/29 12:12:58;;;;;;;4.35;1.13;;;19.30;99.90;;;;;;6123092;23;20418;-70
2023/09/29 12:15:24;;;;;;;6.40;1.70;;;19.20;99.90;;;;;;6097586;23;20021;-70
2023/09/29 12:17:53;;;;;;;4.07;1.17;;;19.20;99.90;;;;;;6072993;23;20033;-70
2023/09/29 12:20:19;;;;;;;5.18;1.27;;;19.60;99.90;;;;;;6097423;23;20084;-69
2023/09/29 12:22:46;;;;;;;6.40;1.30;;;18.80;99.90;;;;;;6097080;23;20053;-70
2023/09/29 12:25:15;;;;;;;6.07;1.67;;;19.60;99.90;;;;;;6123511;23;20377;-70
2023/09/29 12:27:44;;;;;;;3.97;1.10;;;19.30;99.90;;;;;;6096570;23;20018;-69
2023/09/29 12:30:14;;;;;;;6.50;1.38;;;18.90;99.90;;;;;;6097344;23;20022;-69
2023/09/29 12:32:42;;;;;;;5.50;1.40;;;19.10;99.90;;;;;;6097413;23;20053;-70
2023/09/29 12:35:14;;;;;;;7.35;1.55;;;18.90;99.90;;;;;;6096826;23;20017;-69
2023/09/29 12:37:44;;;;;;;5.47;1.40;;;19.50;99.90;;;;;;6096490;23;20065;-69
2023/09/29 12:40:11;;;;;;;4.03;1.10;;;19.10;99.90;;;;;;6097169;23;20065;-69